createdAt,value
2019-02-27T00:00:22.361Z,3.00
2019-02-27T00:02:53.771Z,3.00
2019-02-27T00:05:24.626Z,3.00
2019-02-27T00:07:54.873Z,3.00
2019-02-27T00:10:24.395Z,3.00
2019-02-27T00:12:53.832Z,3.00
2019-02-27T00:15:23.542Z,2.90
2019-02-27T00:17:53.164Z,2.90
2019-02-27T00:20:22.605Z,2.90
2019-02-27T00:22:52.078Z,2.90
2019-02-27T00:25:21.602Z,2.80
2019-02-27T00:27:51.036Z,2.80
2019-02-27T00:30:20.627Z,2.80
2019-02-27T00:32:51.281Z,2.80
2019-02-27T00:35:21.239Z,2.80
2019-02-27T00:37:52.063Z,2.80
2019-02-27T00:40:21.820Z,2.80
2019-02-27T00:42:54.117Z,2.70
2019-02-27T00:45:22.256Z,2.70
2019-02-27T00:47:53.290Z,2.70
2019-02-27T00:50:22.761Z,2.70
2019-02-27T00:52:52.188Z,2.70
2019-02-27T00:55:25.036Z,2.60
2019-02-27T00:57:54.989Z,2.60
2019-02-27T01:00:24.604Z,2.60
2019-02-27T01:02:54.041Z,2.60
2019-02-27T01:05:23.524Z,2.60
2019-02-27T01:07:54.207Z,2.50
2019-02-27T01:10:24.258Z,2.50
2019-02-27T01:12:57.844Z,2.50
2019-02-27T01:15:26.290Z,2.50
2019-02-27T01:17:57.554Z,2.40
2019-02-27T01:20:26.994Z,2.40
2019-02-27T01:22:56.360Z,2.40
2019-02-27T01:25:27.349Z,2.40
2019-02-27T01:27:56.849Z,2.40
2019-02-27T01:30:26.290Z,2.30
2019-02-27T01:32:55.744Z,2.30
2019-02-27T01:35:25.097Z,2.40
2019-02-27T01:37:54.446Z,2.30
2019-02-27T01:40:23.813Z,2.30
2019-02-27T01:42:53.192Z,2.30
2019-02-27T01:45:22.693Z,2.30
2019-02-27T01:47:52.196Z,2.30
2019-02-27T01:50:30.440Z,2.40
2019-02-27T01:52:59.934Z,2.40
2019-02-27T01:55:29.508Z,2.40
2019-02-27T01:57:58.962Z,2.50
2019-02-27T02:00:28.541Z,2.50
2019-02-27T02:02:58.196Z,2.50
2019-02-27T02:05:27.900Z,2.50
2019-02-27T02:08:00.207Z,2.50
2019-02-27T02:10:29.738Z,2.50
2019-02-27T02:13:05.059Z,2.50
2019-02-27T02:15:46.135Z,2.50
2019-02-27T02:18:27.743Z,2.40
2019-02-27T02:21:08.932Z,2.40
2019-02-27T02:23:56.304Z,2.40
2019-02-27T02:26:40.671Z,2.40
2019-02-27T02:29:17.908Z,2.30
2019-02-27T02:31:51.981Z,2.30
2019-02-27T02:34:50.283Z,2.30
2019-02-27T02:37:28.702Z,2.30
2019-02-27T02:40:01.249Z,2.30
2019-02-27T02:42:53.400Z,2.30
2019-02-27T02:45:41.050Z,2.30
2019-02-27T02:48:23.422Z,2.30
2019-02-27T02:51:20.148Z,2.30
2019-02-27T02:54:10.639Z,2.30
2019-02-27T02:56:43.355Z,2.30
2019-02-27T02:59:49.357Z,2.30
2019-02-27T03:02:42.867Z,2.30
2019-02-27T03:05:37.237Z,2.30
2019-02-27T03:08:19.817Z,2.20
2019-02-27T03:11:07.494Z,2.20
2019-02-27T03:13:48.899Z,2.20
2019-02-27T03:16:41.402Z,2.20
2019-02-27T03:19:25.942Z,2.10
2019-02-27T03:22:03.087Z,2.10
2019-02-27T03:24:50.879Z,2.10
2019-02-27T03:27:30.566Z,2.10
2019-02-27T03:30:17.238Z,2.10
2019-02-27T03:33:26.670Z,2.10
2019-02-27T03:36:15.565Z,2.00
2019-02-27T03:39:12.418Z,2.00
2019-02-27T03:42:17.992Z,1.90
2019-02-27T03:45:16.267Z,1.90
2019-02-27T03:48:05.793Z,1.90
2019-02-27T03:50:49.443Z,1.90
2019-02-27T03:53:30.775Z,1.80
2019-02-27T03:56:09.974Z,1.80
2019-02-27T03:58:42.686Z,1.80
2019-02-27T04:01:17.901Z,1.80
2019-02-27T04:04:10.298Z,1.80
2019-02-27T04:06:59.319Z,1.80
2019-02-27T04:09:29.841Z,1.90
2019-02-27T04:11:59.818Z,1.90
2019-02-27T04:14:31.686Z,1.90
2019-02-27T04:17:05.510Z,1.90
2019-02-27T04:19:38.863Z,1.90
2019-02-27T04:22:04.133Z,2.00
2019-02-27T04:24:33.577Z,2.00
2019-02-27T04:27:02.939Z,2.00
2019-02-27T04:29:32.369Z,2.10
2019-02-27T04:32:01.822Z,2.10
2019-02-27T04:34:33.270Z,2.10
2019-02-27T04:37:02.244Z,2.20
2019-02-27T04:39:31.740Z,2.20
2019-02-27T04:42:01.449Z,2.20
2019-02-27T04:44:32.107Z,2.20
2019-02-27T04:47:01.769Z,2.20
2019-02-27T04:49:31.911Z,2.30
2019-02-27T04:52:02.152Z,2.30
2019-02-27T04:54:35.018Z,2.30
2019-02-27T04:57:04.534Z,2.30
2019-02-27T04:59:33.979Z,2.30
2019-02-27T05:02:03.479Z,2.20
2019-02-27T05:04:35.241Z,2.30
2019-02-27T05:07:03.981Z,2.30
2019-02-27T05:09:34.110Z,2.20
2019-02-27T05:12:04.159Z,2.20
2019-02-27T05:14:34.533Z,2.10
2019-02-27T05:17:04.673Z,2.10
2019-02-27T05:19:37.095Z,2.00
2019-02-27T05:22:05.813Z,2.00
2019-02-27T05:24:35.269Z,2.00
2019-02-27T05:27:05.261Z,2.00
2019-02-27T05:29:37.565Z,1.90
2019-02-27T05:32:06.402Z,1.90
2019-02-27T05:34:35.845Z,1.90
2019-02-27T05:37:06.016Z,1.90
2019-02-27T05:39:35.887Z,1.90
2019-02-27T05:42:06.994Z,1.80
2019-02-27T05:44:36.450Z,1.80
2019-02-27T05:47:05.897Z,1.70
2019-02-27T05:49:35.417Z,1.80
2019-02-27T05:52:04.858Z,1.70
2019-02-27T05:54:34.297Z,1.70
2019-02-27T05:57:11.541Z,1.70
2019-02-27T05:59:41.128Z,1.70
2019-02-27T06:02:10.888Z,1.60
2019-02-27T06:04:41.003Z,1.60
2019-02-27T06:07:10.431Z,1.60
2019-02-27T06:09:41.416Z,1.60
2019-02-27T06:12:10.955Z,1.60
2019-02-27T06:14:40.392Z,1.70
2019-02-27T06:17:12.804Z,1.70
2019-02-27T06:19:40.911Z,1.80
2019-02-27T06:22:10.360Z,1.70
2019-02-27T06:24:40.015Z,1.80
2019-02-27T06:27:10.547Z,1.80
2019-02-27T06:29:40.355Z,1.80
2019-02-27T06:32:12.395Z,1.90
2019-02-27T06:34:41.533Z,1.90
2019-02-27T06:37:15.338Z,1.90
2019-02-27T06:39:42.043Z,2.00
2019-02-27T06:42:11.540Z,2.00
2019-02-27T06:44:41.161Z,2.30
2019-02-27T06:47:11.287Z,2.60
2019-02-27T06:49:41.461Z,2.90
2019-02-27T06:52:11.504Z,3.30
2019-02-27T06:54:41.726Z,3.60
2019-02-27T06:57:12.090Z,3.70
2019-02-27T06:59:41.943Z,3.80
2019-02-27T07:02:12.070Z,3.80
2019-02-27T07:04:42.363Z,3.70
2019-02-27T07:07:12.515Z,3.60
2019-02-27T07:09:43.253Z,3.60
2019-02-27T07:12:13.688Z,3.50
2019-02-27T07:14:43.134Z,3.40
2019-02-27T07:17:13.230Z,3.40
2019-02-27T07:19:43.307Z,3.40
2019-02-27T07:22:13.488Z,3.40
2019-02-27T07:24:43.543Z,3.40
2019-02-27T07:27:13.007Z,3.40
2019-02-27T07:29:42.967Z,3.40
2019-02-27T07:32:12.483Z,3.50
2019-02-27T07:34:41.932Z,3.60
2019-02-27T07:37:12.985Z,3.60
2019-02-27T07:39:42.495Z,3.70
2019-02-27T07:42:11.916Z,3.80
2019-02-27T07:44:42.265Z,3.90
2019-02-27T07:47:11.800Z,4.00
2019-02-27T07:49:41.234Z,4.10
2019-02-27T07:52:10.730Z,4.10
2019-02-27T07:54:40.170Z,4.20
2019-02-27T07:57:09.600Z,4.30
2019-02-27T07:59:39.038Z,4.40
2019-02-27T08:02:08.486Z,4.50
2019-02-27T08:04:37.916Z,4.50
2019-02-27T08:07:09.955Z,4.60
2019-02-27T08:09:38.336Z,4.70
2019-02-27T08:12:07.760Z,4.80
2019-02-27T08:14:37.857Z,4.80
2019-02-27T08:17:17.262Z,4.90
2019-02-27T08:19:38.476Z,5.00
2019-02-27T08:22:07.902Z,5.10
2019-02-27T08:24:37.327Z,5.20
2019-02-27T08:27:07.106Z,5.40
2019-02-27T08:29:37.813Z,5.40
2019-02-27T08:32:07.328Z,5.60
2019-02-27T08:34:36.748Z,5.60
2019-02-27T08:37:06.122Z,5.70
2019-02-27T08:39:35.482Z,5.90
2019-02-27T08:42:04.879Z,6.00
2019-02-27T08:44:34.306Z,6.10
2019-02-27T08:47:04.306Z,6.20
2019-02-27T08:49:33.814Z,6.40
2019-02-27T08:52:04.397Z,6.40
2019-02-27T08:54:35.472Z,6.60
2019-02-27T08:57:05.006Z,6.70
2019-02-27T08:59:36.997Z,6.80
2019-02-27T09:02:08.133Z,6.90
2019-02-27T09:04:42.823Z,7.00
2019-02-27T09:07:12.630Z,7.20
2019-02-27T09:09:42.053Z,7.30
2019-02-27T09:12:13.412Z,7.40
2019-02-27T09:14:42.618Z,7.50
2019-02-27T09:17:12.085Z,7.60
2019-02-27T09:19:45.316Z,7.70
2019-02-27T09:22:12.595Z,7.90
2019-02-27T09:24:42.030Z,8.00
2019-02-27T09:27:11.489Z,8.10
2019-02-27T09:29:40.916Z,8.20
2019-02-27T09:32:11.690Z,8.40
2019-02-27T09:34:42.042Z,8.50
2019-02-27T09:37:13.905Z,8.70
2019-02-27T09:39:42.637Z,8.80
2019-02-27T09:42:12.459Z,9.00
2019-02-27T09:44:41.965Z,9.10
2019-02-27T09:47:11.385Z,9.20
2019-02-27T09:49:41.542Z,9.30
2019-02-27T09:52:11.012Z,9.50
2019-02-27T09:54:40.383Z,9.60
2019-02-27T09:57:09.810Z,9.70
2019-02-27T09:59:40.011Z,9.90
2019-02-27T10:02:12.385Z,10.00
2019-02-27T10:04:40.619Z,10.20
2019-02-27T10:07:10.114Z,10.40
2019-02-27T10:09:40.410Z,10.50
2019-02-27T10:12:10.991Z,10.60
2019-02-27T10:14:40.457Z,10.70
2019-02-27T10:17:09.880Z,10.80
2019-02-27T10:19:39.347Z,11.00
2019-02-27T10:22:08.796Z,11.10
2019-02-27T10:24:38.230Z,11.20
2019-02-27T10:27:07.676Z,11.40
2019-02-27T10:29:37.036Z,11.40
2019-02-27T10:32:06.746Z,11.60
2019-02-27T10:34:36.325Z,11.70
2019-02-27T10:37:05.911Z,11.90
2019-02-27T10:39:37.052Z,12.00
2019-02-27T10:42:06.645Z,12.10
2019-02-27T10:44:36.066Z,12.20
2019-02-27T10:47:07.067Z,12.40
2019-02-27T10:49:38.240Z,12.50
2019-02-27T10:52:07.667Z,12.60
2019-02-27T10:54:39.414Z,12.70
2019-02-27T10:57:08.181Z,12.80
2019-02-27T10:59:37.639Z,13.00
2019-02-27T11:02:09.770Z,13.00
2019-02-27T11:04:38.914Z,13.10
2019-02-27T11:07:10.073Z,13.20
2019-02-27T11:09:41.205Z,13.30
2019-02-27T11:12:10.678Z,13.40
2019-02-27T11:14:40.263Z,13.50
2019-02-27T11:17:09.735Z,13.70
2019-02-27T11:19:39.276Z,13.70
2019-02-27T11:22:08.714Z,13.80
2019-02-27T11:24:39.273Z,13.90
2019-02-27T11:27:08.636Z,14.00
2019-02-27T11:29:38.157Z,14.00
2019-02-27T11:32:07.743Z,14.10
2019-02-27T11:34:37.201Z,14.20
2019-02-27T11:37:06.728Z,14.30
2019-02-27T11:39:36.188Z,14.40
2019-02-27T11:42:05.637Z,14.50
2019-02-27T11:44:35.111Z,14.60
2019-02-27T11:47:04.615Z,14.60
2019-02-27T11:49:36.255Z,14.70
2019-02-27T11:52:05.287Z,14.80
2019-02-27T11:54:34.833Z,14.90
2019-02-27T11:57:04.351Z,14.90
2019-02-27T11:59:33.807Z,15.00
2019-02-27T12:02:03.385Z,15.00
2019-02-27T12:04:35.651Z,15.20
2019-02-27T12:07:05.231Z,15.20
2019-02-27T12:09:35.197Z,15.30
2019-02-27T12:12:06.429Z,15.40
2019-02-27T12:14:35.893Z,15.50
2019-02-27T12:17:05.384Z,15.50
2019-02-27T12:19:34.827Z,15.60
2019-02-27T12:22:04.181Z,15.70
2019-02-27T12:24:33.581Z,15.70
2019-02-27T12:27:03.024Z,15.70
2019-02-27T12:29:32.954Z,15.70
2019-02-27T12:32:02.526Z,15.80
2019-02-27T12:34:34.002Z,15.90
2019-02-27T12:37:03.152Z,16.00
2019-02-27T12:39:32.604Z,16.00
2019-02-27T12:42:06.700Z,16.00
2019-02-27T12:44:34.495Z,16.00
2019-02-27T12:47:05.502Z,16.10
2019-02-27T12:49:35.321Z,16.10
2019-02-27T12:52:04.757Z,16.20
2019-02-27T12:54:35.302Z,16.20
2019-02-27T12:57:04.733Z,16.20
2019-02-27T12:59:34.222Z,16.20
2019-02-27T13:02:08.235Z,16.30
2019-02-27T13:04:35.035Z,16.30
2019-02-27T13:07:04.727Z,16.30
2019-02-27T13:09:34.165Z,16.30
2019-02-27T13:12:03.675Z,16.30
2019-02-27T13:14:33.384Z,16.40
2019-02-27T13:17:03.434Z,16.40
2019-02-27T13:19:32.866Z,16.40
2019-02-27T13:22:03.449Z,16.40
2019-02-27T13:24:32.893Z,16.50
2019-02-27T13:27:02.937Z,16.50
2019-02-27T13:29:33.293Z,16.50
2019-02-27T13:32:03.257Z,16.50
2019-02-27T13:34:33.376Z,16.50
2019-02-27T13:37:03.553Z,16.50
2019-02-27T13:39:36.498Z,16.50
2019-02-27T13:42:05.953Z,16.50
2019-02-27T13:44:35.384Z,16.60
2019-02-27T13:47:04.750Z,16.60
2019-02-27T13:49:34.118Z,16.60
2019-02-27T13:52:04.268Z,16.60
2019-02-27T13:54:37.987Z,16.60
2019-02-27T13:57:08.451Z,16.60
2019-02-27T13:59:37.893Z,16.60
2019-02-27T14:02:07.515Z,16.70
2019-02-27T14:04:36.957Z,16.70
2019-02-27T14:07:06.478Z,16.70
2019-02-27T14:09:35.919Z,16.70
2019-02-27T14:12:05.819Z,16.70
2019-02-27T14:14:35.411Z,16.70
2019-02-27T14:17:07.754Z,16.70
2019-02-27T14:19:38.372Z,16.60
2019-02-27T14:22:08.208Z,16.70
2019-02-27T14:24:38.337Z,16.70
2019-02-27T14:27:07.909Z,16.60
2019-02-27T14:29:37.362Z,16.60
2019-02-27T14:32:06.899Z,16.60
2019-02-27T14:34:36.472Z,16.60
2019-02-27T14:37:06.602Z,16.60
2019-02-27T14:39:36.888Z,16.50
2019-02-27T14:42:06.955Z,16.60
2019-02-27T14:44:37.103Z,16.50
2019-02-27T14:47:07.518Z,16.50
2019-02-27T14:49:37.392Z,16.50
2019-02-27T14:52:07.517Z,16.40
2019-02-27T14:54:37.674Z,16.40
2019-02-27T14:57:07.850Z,16.40
2019-02-27T14:59:37.960Z,16.40
2019-02-27T15:02:08.223Z,16.30
2019-02-27T15:04:38.250Z,16.30
2019-02-27T15:07:08.394Z,16.30
2019-02-27T15:09:47.447Z,16.30
2019-02-27T15:12:09.510Z,16.20
2019-02-27T15:14:38.950Z,16.20
2019-02-27T15:17:08.803Z,16.20
2019-02-27T15:19:39.064Z,16.20
2019-02-27T15:22:09.115Z,16.20
2019-02-27T15:24:39.233Z,16.10
2019-02-27T15:27:09.370Z,16.20
2019-02-27T15:29:40.303Z,16.20
2019-02-27T15:32:09.938Z,16.10
2019-02-27T15:34:39.883Z,16.10
2019-02-27T15:37:09.934Z,16.10
2019-02-27T15:39:40.032Z,16.00
2019-02-27T15:42:11.122Z,16.00
2019-02-27T15:44:40.579Z,16.00
2019-02-27T15:47:10.631Z,15.90
2019-02-27T15:49:41.151Z,15.90
2019-02-27T15:52:10.742Z,15.90
2019-02-27T15:54:40.833Z,15.80
2019-02-27T15:57:10.987Z,15.70
2019-02-27T15:59:41.926Z,15.60
2019-02-27T16:02:11.521Z,15.50
2019-02-27T16:04:41.406Z,15.40
2019-02-27T16:07:13.871Z,15.30
2019-02-27T16:09:42.662Z,15.20
2019-02-27T16:12:12.180Z,15.20
2019-02-27T16:14:42.859Z,15.10
2019-02-27T16:17:13.123Z,15.00
2019-02-27T16:19:44.674Z,14.80
2019-02-27T16:22:13.592Z,14.70
2019-02-27T16:24:43.917Z,14.60
2019-02-27T16:27:13.491Z,14.50
2019-02-27T16:29:42.927Z,14.40
2019-02-27T16:32:13.445Z,14.30
2019-02-27T16:34:43.437Z,14.20
2019-02-27T16:37:13.141Z,14.10
2019-02-27T16:39:45.578Z,13.90
2019-02-27T16:42:14.317Z,13.80
2019-02-27T16:44:43.763Z,13.60
2019-02-27T16:47:15.625Z,13.50
2019-02-27T16:49:47.193Z,13.30
2019-02-27T16:52:18.792Z,13.20
2019-02-27T16:54:48.262Z,13.10
2019-02-27T16:57:21.054Z,12.90
2019-02-27T16:59:48.780Z,12.80
2019-02-27T17:02:19.134Z,12.70
2019-02-27T17:04:48.591Z,12.60
2019-02-27T17:07:18.039Z,12.50
2019-02-27T17:09:48.635Z,12.40
2019-02-27T17:12:18.075Z,12.20
2019-02-27T17:14:48.963Z,12.10
2019-02-27T17:17:19.769Z,11.90
2019-02-27T17:19:49.540Z,11.80
2019-02-27T17:22:19.455Z,11.70
2019-02-27T17:24:48.988Z,11.60
2019-02-27T17:27:18.516Z,11.50
2019-02-27T17:29:47.977Z,11.50
2019-02-27T17:32:17.431Z,11.40
2019-02-27T17:34:47.656Z,11.30
2019-02-27T17:37:17.822Z,11.20
2019-02-27T17:39:48.626Z,11.10
2019-02-27T17:42:18.482Z,11.00
2019-02-27T17:44:52.398Z,11.00
2019-02-27T17:47:21.842Z,10.90
2019-02-27T17:49:51.301Z,10.90
2019-02-27T17:52:20.746Z,10.80
2019-02-27T17:54:50.262Z,10.80
2019-02-27T17:57:24.163Z,10.70
2019-02-27T17:59:50.730Z,10.70
2019-02-27T18:02:20.318Z,10.70
2019-02-27T18:04:53.582Z,10.60
2019-02-27T18:07:20.974Z,10.60
2019-02-27T18:09:50.530Z,10.60
2019-02-27T18:12:21.535Z,10.50
2019-02-27T18:14:51.150Z,10.50
2019-02-27T18:17:20.663Z,10.50
2019-02-27T18:19:50.918Z,10.40
2019-02-27T18:22:20.574Z,10.40
2019-02-27T18:24:50.044Z,10.40
2019-02-27T18:27:24.649Z,10.30
2019-02-27T18:29:54.057Z,10.20
2019-02-27T18:32:23.652Z,10.20
2019-02-27T18:34:54.692Z,10.10
2019-02-27T18:37:24.411Z,10.10
2019-02-27T18:39:53.914Z,10.00
2019-02-27T18:42:23.558Z,9.90
2019-02-27T18:44:53.094Z,9.80
2019-02-27T18:47:22.614Z,9.70
2019-02-27T18:49:52.953Z,9.60
2019-02-27T18:52:22.623Z,9.50
2019-02-27T18:54:54.737Z,9.50
2019-02-27T18:57:24.782Z,9.40
2019-02-27T18:59:54.304Z,9.40
2019-02-27T19:02:23.863Z,9.20
2019-02-27T19:04:53.305Z,9.20
2019-02-27T19:07:22.946Z,9.10
2019-02-27T19:09:52.823Z,9.00
2019-02-27T19:12:27.615Z,9.00
2019-02-27T19:14:53.540Z,8.90
2019-02-27T19:17:29.423Z,8.80
2019-02-27T19:19:56.305Z,8.70
2019-02-27T19:22:26.123Z,8.60
2019-02-27T19:25:00.074Z,8.60
2019-02-27T19:27:29.426Z,8.50
2019-02-27T19:29:58.983Z,8.40
2019-02-27T19:32:28.487Z,8.40
2019-02-27T19:34:58.263Z,8.30
2019-02-27T19:37:27.755Z,8.20
2019-02-27T19:39:57.293Z,8.20
2019-02-27T19:42:26.895Z,8.20
2019-02-27T19:45:00.412Z,8.30
2019-02-27T19:47:28.468Z,8.20
2019-02-27T19:49:58.054Z,8.20
2019-02-27T19:52:29.617Z,8.10
2019-02-27T19:55:01.084Z,8.10
2019-02-27T19:57:31.643Z,8.00
2019-02-27T20:00:01.719Z,8.00
2019-02-27T20:02:31.214Z,8.00
2019-02-27T20:05:00.620Z,8.00
2019-02-27T20:07:32.905Z,8.00
2019-02-27T20:10:05.270Z,8.00
2019-02-27T20:12:37.909Z,8.10
2019-02-27T20:15:11.777Z,8.10
2019-02-27T20:17:41.625Z,8.10
2019-02-27T20:20:13.713Z,8.10
2019-02-27T20:22:44.382Z,8.10
2019-02-27T20:25:18.328Z,8.10
2019-02-27T20:27:48.033Z,8.10
2019-02-27T20:30:21.210Z,8.10
2019-02-27T20:32:51.485Z,8.10
2019-02-27T20:35:22.929Z,8.10
2019-02-27T20:37:52.630Z,8.10
2019-02-27T20:40:22.298Z,8.00
2019-02-27T20:42:54.896Z,8.00
2019-02-27T20:45:26.676Z,8.00
2019-02-27T20:48:01.674Z,7.90
2019-02-27T20:50:34.757Z,7.90
2019-02-27T20:53:03.763Z,7.90
2019-02-27T20:55:33.642Z,7.80
2019-02-27T20:58:03.200Z,7.80
2019-02-27T21:00:37.561Z,7.80
2019-02-27T21:03:07.173Z,7.70
2019-02-27T21:05:41.094Z,7.70
2019-02-27T21:08:15.563Z,7.60
2019-02-27T21:10:46.925Z,7.60
2019-02-27T21:13:20.807Z,7.60
2019-02-27T21:15:51.594Z,7.60
2019-02-27T21:18:21.472Z,7.70
2019-02-27T21:20:53.771Z,7.70
2019-02-27T21:23:23.252Z,7.70
2019-02-27T21:25:52.762Z,7.80
2019-02-27T21:28:22.365Z,7.80
2019-02-27T21:31:04.157Z,7.80
2019-02-27T21:33:33.596Z,7.80
2019-02-27T21:36:03.730Z,7.80
2019-02-27T21:38:33.367Z,7.70
2019-02-27T21:41:02.812Z,7.70
2019-02-27T21:43:32.706Z,7.60
2019-02-27T21:46:02.156Z,7.60
2019-02-27T21:48:32.054Z,7.50
2019-02-27T21:51:02.232Z,7.50
2019-02-27T21:53:32.433Z,7.50
2019-02-27T21:56:02.371Z,7.40
2019-02-27T21:58:33.000Z,7.40
2019-02-27T22:01:03.010Z,7.40
2019-02-27T22:03:35.301Z,7.30
2019-02-27T22:06:04.127Z,7.30
2019-02-27T22:08:36.123Z,7.20
2019-02-27T22:11:04.875Z,7.10
2019-02-27T22:13:34.356Z,7.10
2019-02-27T22:16:03.879Z,7.00
2019-02-27T22:18:33.627Z,6.90
2019-02-27T22:21:03.739Z,6.80
2019-02-27T22:23:33.845Z,6.80
2019-02-27T22:26:04.343Z,6.70
2019-02-27T22:28:34.181Z,6.60
2019-02-27T22:31:06.781Z,6.50
2019-02-27T22:33:35.581Z,6.50
2019-02-27T22:36:05.128Z,6.40
2019-02-27T22:38:34.607Z,6.40
2019-02-27T22:41:04.786Z,6.30
2019-02-27T22:43:35.191Z,6.30
2019-02-27T22:46:05.030Z,6.20
2019-02-27T22:48:35.212Z,6.20
2019-02-27T22:51:05.262Z,6.20
2019-02-27T22:53:35.357Z,6.10
2019-02-27T22:56:05.594Z,6.10
2019-02-27T22:58:35.769Z,6.10
2019-02-27T23:01:10.150Z,6.10
2019-02-27T23:03:44.350Z,6.00
2019-02-27T23:06:16.780Z,6.00
2019-02-27T23:08:46.555Z,6.00
2019-02-27T23:11:16.056Z,6.00
2019-02-27T23:13:47.500Z,6.10
2019-02-27T23:16:18.892Z,6.10
2019-02-27T23:18:49.276Z,6.10
2019-02-27T23:21:19.674Z,6.20
2019-02-27T23:23:49.170Z,6.20
2019-02-27T23:26:20.173Z,6.20
2019-02-27T23:28:52.429Z,6.10
2019-02-27T23:31:23.424Z,6.10
2019-02-27T23:33:55.860Z,6.10
2019-02-27T23:36:25.242Z,6.10
2019-02-27T23:38:54.686Z,6.00
2019-02-27T23:41:24.152Z,6.00
2019-02-27T23:43:53.578Z,6.00
2019-02-27T23:46:23.026Z,6.00
2019-02-27T23:48:52.610Z,6.00
2019-02-27T23:51:22.058Z,5.90
2019-02-27T23:53:51.564Z,5.90
2019-02-27T23:56:20.982Z,5.90
2019-02-27T23:58:50.347Z,5.90
